Time;durP1;ratioP1;P1;durP2;ratioP2;P2;SDS_P1;SDS_P2;PMS_P1;PMS_P2;Temp;Humidity;BMP_temperature;BMP_pressure;BME280_temperature;BME280_humidity;BME280_pressure;Samples;Min_cycle;Max_cycle;Signal;HPM_P1;HPM_P2
2022/12/09 00:00:00;;;;;;;16.63;15.02;;;10.30;88.60;;;;;;5038115;28;20035;-82
2022/12/09 00:02:27;;;;;;;16.58;15.07;;;10.40;88.70;;;;;;5055767;28;20044;-81
2022/12/09 00:04:53;;;;;;;15.82;14.32;;;10.40;88.70;;;;;;5055696;28;20468;-83
2022/12/09 00:07:18;;;;;;;16.48;14.95;;;10.40;88.70;;;;;;5055663;28;20017;-83
2022/12/09 00:09:44;;;;;;;15.68;14.25;;;10.40;88.70;;;;;;5055539;28;20032;-82
2022/12/09 00:12:09;;;;;;;16.48;14.93;;;10.30;88.60;;;;;;5033032;28;20029;-82
2022/12/09 00:14:35;;;;;;;17.25;15.75;;;10.30;88.60;;;;;;5033701;28;20025;-82
2022/12/09 00:17:01;;;;;;;17.00;15.40;;;10.30;88.60;;;;;;5032656;28;20025;-82
2022/12/09 00:19:26;;;;;;;16.15;14.75;;;10.30;88.50;;;;;;5032684;28;20108;-81
2022/12/09 00:21:52;;;;;;;16.83;15.23;;;10.40;88.60;;;;;;5037982;28;20029;-82
2022/12/09 00:24:17;;;;;;;15.98;14.55;;;10.30;88.50;;;;;;5046504;28;20481;-83
2022/12/09 00:26:43;;;;;;;17.40;15.90;;;10.30;88.40;;;;;;5044383;28;20206;-82
2022/12/09 00:29:09;;;;;;;16.42;14.85;;;10.30;88.50;;;;;;5037348;28;20025;-81
2022/12/09 00:31:36;;;;;;;17.27;15.68;;;10.30;88.40;;;;;;5034063;28;20037;-82
2022/12/09 00:34:06;;;;;;;16.63;15.18;;;10.30;88.40;;;;;;5026487;28;20079;-81
2022/12/09 00:36:32;;;;;;;16.15;14.63;;;10.30;88.40;;;;;;5017093;28;20030;-82
2022/12/09 00:38:58;;;;;;;16.45;14.95;;;10.40;88.30;;;;;;5018203;28;20061;-82
2022/12/09 00:41:25;;;;;;;16.77;15.18;;;10.40;88.40;;;;;;5016902;28;20048;-82
2022/12/09 00:43:51;;;;;;;16.08;14.57;;;10.30;88.20;;;;;;5025060;28;20086;-82
2022/12/09 00:46:17;;;;;;;16.33;14.82;;;10.40;88.20;;;;;;5035858;28;20024;-83
2022/12/09 00:48:44;;;;;;;17.48;15.88;;;10.40;88.10;;;;;;5036542;28;20115;-82
2022/12/09 00:51:13;;;;;;;16.52;15.02;;;10.40;88.10;;;;;;5035932;28;20040;-83
2022/12/09 00:53:38;;;;;;;17.15;15.65;;;10.40;88.00;;;;;;5044777;28;20028;-81
2022/12/09 00:56:05;;;;;;;15.88;14.40;;;10.40;88.00;;;;;;5054741;28;20056;-83
2022/12/09 00:58:30;;;;;;;16.90;15.40;;;10.40;88.00;;;;;;5053409;28;20029;-82
2022/12/09 01:00:56;;;;;;;16.55;15.00;;;10.40;88.00;;;;;;5036722;28;20032;-81
2022/12/09 01:03:21;;;;;;;16.40;14.90;;;10.40;88.10;;;;;;5032360;28;20036;-81
2022/12/09 01:05:49;;;;;;;16.38;14.90;;;10.40;88.10;;;;;;5054224;28;20040;-83
2022/12/09 01:08:14;;;;;;;16.83;15.32;;;10.40;88.20;;;;;;5043106;28;20029;-82
2022/12/09 01:10:42;;;;;;;16.67;15.13;;;10.40;88.30;;;;;;5041718;28;20039;-82
2022/12/09 01:13:08;;;;;;;16.60;15.00;;;10.30;88.20;;;;;;5051650;28;20659;-82
2022/12/09 01:15:35;;;;;;;17.25;15.63;;;10.30;88.40;;;;;;5042282;28;20029;-82
2022/12/09 01:18:00;;;;;;;16.88;15.30;;;10.30;88.40;;;;;;5021884;28;20026;-82
2022/12/09 01:20:26;;;;;;;15.80;14.38;;;10.30;88.40;;;;;;5023532;28;20025;-82
2022/12/09 01:22:51;;;;;;;16.77;15.27;;;10.30;88.40;;;;;;5048240;28;20037;-83
2022/12/09 01:25:17;;;;;;;17.13;15.52;;;10.30;88.40;;;;;;5057721;28;20029;-82
2022/12/09 01:27:43;;;;;;;16.88;15.38;;;10.30;88.40;;;;;;5059892;28;20063;-82
2022/12/09 01:30:11;;;;;;;16.92;15.30;;;10.30;88.50;;;;;;5042560;28;20024;-82
2022/12/09 01:32:37;;;;;;;16.77;15.27;;;10.30;88.50;;;;;;5044637;28;20108;-83
2022/12/09 01:35:03;;;;;;;17.55;16.00;;;10.30;88.50;;;;;;5069244;28;20029;-83
2022/12/09 01:37:34;;;;;;;17.13;15.63;;;10.30;88.50;;;;;;5050392;28;20021;-84
2022/12/09 01:40:00;;;;;;;18.13;16.43;;;10.30;88.40;;;;;;5049024;28;20048;-83
2022/12/09 01:42:26;;;;;;;17.25;15.70;;;10.20;88.40;;;;;;5041984;28;20029;-82
2022/12/09 01:45:29;;;;;;;16.75;15.25;;;10.30;88.40;;;;;;5060556;28;20028;-83
2022/12/09 01:48:00;;;;;;;16.95;15.45;;;10.30;88.50;;;;;;5043506;28;20040;-82
2022/12/09 01:50:28;;;;;;;18.15;16.50;;;10.20;88.50;;;;;;5063764;28;20021;-83
2022/12/09 01:52:55;;;;;;;17.85;16.23;;;10.20;88.40;;;;;;5047428;28;20102;-83
2022/12/09 01:55:20;;;;;;;17.52;15.93;;;10.20;88.40;;;;;;5046975;28;20115;-83
2022/12/09 01:57:46;;;;;;;17.58;16.08;;;10.20;88.50;;;;;;5065356;28;20488;-83
2022/12/09 02:00:13;;;;;;;17.83;16.23;;;10.20;88.40;;;;;;5046685;28;20033;-83
2022/12/09 02:02:41;;;;;;;17.02;15.43;;;10.20;88.40;;;;;;5060656;28;20029;-83
2022/12/09 02:05:07;;;;;;;18.00;16.50;;;10.20;88.40;;;;;;5046054;28;20029;-82
2022/12/09 02:07:33;;;;;;;17.40;15.90;;;10.30;88.40;;;;;;5046181;28;20032;-83
2022/12/09 02:09:59;;;;;;;18.25;16.55;;;10.20;88.40;;;;;;5045971;28;20027;-84
2022/12/09 02:12:32;;;;;;;18.75;17.10;;;10.20;88.40;;;;;;5044770;28;20025;-82
2022/12/09 02:15:05;;;;;;;17.95;16.30;;;10.20;88.30;;;;;;5045211;28;20055;-82
2022/12/09 02:18:03;;;;;;;17.50;15.90;;;10.20;88.30;;;;;;5041726;28;20477;-82
2022/12/09 02:20:38;;;;;;;18.67;17.00;;;10.20;88.30;;;;;;5017701;28;20033;-82
2022/12/09 02:23:31;;;;;;;18.67;16.98;;;10.20;88.30;;;;;;5050715;28;20408;-83
2022/12/09 02:26:12;;;;;;;18.48;16.77;;;10.20;88.30;;;;;;5060196;28;20762;-82
2022/12/09 02:29:12;;;;;;;18.92;17.23;;;10.20;88.20;;;;;;5057726;28;20028;-82
2022/12/09 02:31:47;;;;;;;18.63;16.92;;;10.20;88.20;;;;;;5037974;28;20437;-82
2022/12/09 02:34:17;;;;;;;17.45;15.88;;;10.20;88.20;;;;;;5038574;28;20040;-83
2022/12/09 02:37:04;;;;;;;19.02;17.33;;;10.20;88.20;;;;;;5059747;28;20515;-83
2022/12/09 02:39:37;;;;;;;19.13;17.35;;;10.20;88.30;;;;;;5039630;28;20097;-82
2022/12/09 02:42:07;;;;;;;18.42;16.58;;;10.20;88.20;;;;;;5046449;28;20079;-82
2022/12/09 02:44:34;;;;;;;18.00;16.40;;;10.20;88.20;;;;;;5054368;28;20052;-82
2022/12/09 02:47:00;;;;;;;17.67;16.02;;;10.20;88.20;;;;;;5038713;28;20392;-82
2022/12/09 02:49:29;;;;;;;18.35;16.70;;;10.20;88.20;;;;;;5044864;28;20033;-82
2022/12/09 02:51:56;;;;;;;18.25;16.55;;;10.20;88.20;;;;;;5058088;28;20029;-83
2022/12/09 02:54:23;;;;;;;19.02;17.33;;;10.20;88.20;;;;;;5045755;28;20020;-83
2022/12/09 02:56:59;;;;;;;18.02;16.42;;;10.20;88.20;;;;;;5044101;28;20084;-83
2022/12/09 02:59:24;;;;;;;18.73;17.13;;;10.20;88.20;;;;;;5061329;28;20037;-84
2022/12/09 03:02:01;;;;;;;18.25;16.65;;;10.20;88.10;;;;;;5042221;28;20400;-82
2022/12/09 03:04:28;;;;;;;18.90;17.20;;;10.20;88.10;;;;;;5036889;28;20420;-83
2022/12/09 03:06:59;;;;;;;18.70;17.10;;;10.20;88.20;;;;;;5041114;28;20025;-82
2022/12/09 03:09:29;;;;;;;18.83;17.02;;;10.20;88.20;;;;;;5039163;28;20116;-82
2022/12/09 03:12:00;;;;;;;19.30;17.60;;;10.20;88.10;;;;;;5048222;28;20475;-83
2022/12/09 03:14:40;;;;;;;19.00;17.30;;;10.20;88.00;;;;;;5030035;28;20033;-82
2022/12/09 03:17:18;;;;;;;18.30;16.60;;;10.20;88.10;;;;;;5059458;28;20033;-82
2022/12/09 03:19:51;;;;;;;18.77;17.10;;;10.20;88.10;;;;;;5037466;28;20033;-82
2022/12/09 03:22:21;;;;;;;19.45;17.50;;;10.20;87.90;;;;;;5022097;28;20032;-81
2022/12/09 03:25:04;;;;;;;19.98;18.17;;;10.30;87.80;;;;;;5035780;28;20028;-82
2022/12/09 03:27:39;;;;;;;18.08;16.38;;;10.30;87.80;;;;;;5037344;28;20032;-82
2022/12/09 03:30:07;;;;;;;19.20;17.50;;;10.30;87.80;;;;;;5039192;28;20093;-82
2022/12/09 03:32:34;;;;;;;18.23;16.52;;;10.30;87.80;;;;;;5025709;28;20032;-82
2022/12/09 03:35:22;;;;;;;17.67;16.08;;;10.30;87.60;;;;;;5057467;28;20025;-83
2022/12/09 03:37:49;;;;;;;17.45;15.90;;;10.30;87.60;;;;;;5038479;28;20036;-82
2022/12/09 03:40:21;;;;;;;18.80;17.10;;;10.30;87.50;;;;;;5037944;28;20021;-81
2022/12/09 03:43:03;;;;;;;18.05;16.27;;;10.30;88.10;;;;;;5045265;28;20052;-82
2022/12/09 03:45:30;;;;;;;18.10;16.45;;;10.20;87.50;;;;;;5035667;28;20032;-81
2022/12/09 03:47:55;;;;;;;18.13;16.48;;;10.20;87.60;;;;;;5055706;28;20029;-83
2022/12/09 03:50:24;;;;;;;17.70;16.10;;;10.20;87.80;;;;;;5037604;28;20108;-81
2022/12/09 03:53:16;;;;;;;18.60;16.90;;;10.20;87.90;;;;;;5037668;28;20052;-82
2022/12/09 03:55:50;;;;;;;18.58;16.90;;;10.20;87.90;;;;;;5036101;28;20082;-82
2022/12/09 03:58:16;;;;;;;18.08;16.38;;;10.20;87.90;;;;;;5036487;28;20032;-81
2022/12/09 04:00:42;;;;;;;18.02;16.40;;;10.20;88.00;;;;;;5055629;28;20092;-79
2022/12/09 04:03:08;;;;;;;18.02;16.33;;;10.20;88.00;;;;;;5054368;28;20025;-82
2022/12/09 04:05:33;;;;;;;18.73;17.02;;;10.20;88.10;;;;;;5036648;28;20249;-81
2022/12/09 04:07:59;;;;;;;18.02;16.38;;;10.20;88.10;;;;;;5055093;28;20630;-81
2022/12/09 04:10:25;;;;;;;19.40;17.60;;;10.20;88.10;;;;;;5055077;28;20063;-82
2022/12/09 04:12:51;;;;;;;18.40;16.70;;;10.10;88.00;;;;;;5035288;28;20037;-82
2022/12/09 04:15:16;;;;;;;19.15;17.45;;;10.20;88.00;;;;;;5035618;28;20033;-82
2022/12/09 04:17:42;;;;;;;18.98;17.27;;;10.10;88.00;;;;;;5038070;28;20584;-83
2022/12/09 04:20:08;;;;;;;18.65;16.98;;;10.10;88.00;;;;;;5059076;28;20106;-83
2022/12/09 04:22:33;;;;;;;19.27;17.50;;;10.10;88.00;;;;;;5055212;28;20100;-82
2022/12/09 04:24:59;;;;;;;18.65;16.95;;;10.20;88.10;;;;;;5057234;28;20021;-82
2022/12/09 04:27:24;;;;;;;19.35;17.65;;;10.10;88.00;;;;;;5038937;28;20026;-82
2022/12/09 04:29:50;;;;;;;19.92;18.17;;;10.20;88.00;;;;;;5039048;28;20083;-83
2022/12/09 04:32:15;;;;;;;18.63;16.92;;;10.10;87.90;;;;;;5054643;28;20033;-82
2022/12/09 04:34:41;;;;;;;18.67;16.98;;;10.10;88.50;;;;;;5048003;28;20444;-82
2022/12/09 04:37:06;;;;;;;18.90;17.20;;;10.20;88.00;;;;;;5056749;28;20032;-81
2022/12/09 04:39:32;;;;;;;19.30;17.58;;;10.10;87.90;;;;;;5039043;28;20021;-82
2022/12/09 04:41:57;;;;;;;19.33;17.52;;;10.10;87.90;;;;;;5052537;28;20403;-82
2022/12/09 04:44:23;;;;;;;18.63;16.92;;;10.10;87.90;;;;;;5051346;28;20051;-82
2022/12/09 04:46:48;;;;;;;18.90;17.20;;;10.10;87.90;;;;;;5052701;28;20491;-82
2022/12/09 04:49:14;;;;;;;19.75;17.95;;;10.10;87.90;;;;;;5035594;28;20021;-81
2022/12/09 04:51:39;;;;;;;18.95;17.25;;;10.10;87.90;;;;;;5031143;28;20481;-81
2022/12/09 04:54:05;;;;;;;19.02;17.33;;;10.10;87.90;;;;;;5019710;28;20049;-81
2022/12/09 04:56:31;;;;;;;20.10;18.30;;;10.10;87.90;;;;;;5046767;28;20028;-82
2022/12/09 04:58:57;;;;;;;19.77;17.98;;;10.10;87.90;;;;;;5033985;28;20021;-81
2022/12/09 05:01:23;;;;;;;20.30;18.45;;;10.10;87.80;;;;;;5034744;28;20021;-82
2022/12/09 05:03:50;;;;;;;19.23;17.45;;;10.10;87.80;;;;;;5051790;28;20032;-82
2022/12/09 05:06:17;;;;;;;19.02;17.33;;;10.10;87.80;;;;;;5032255;28;20026;-82
2022/12/09 05:08:43;;;;;;;20.42;18.52;;;10.10;87.80;;;;;;5036686;28;20396;-82
2022/12/09 05:11:09;;;;;;;20.15;18.40;;;10.10;87.80;;;;;;5037689;28;20052;-79
2022/12/09 05:13:34;;;;;;;20.35;18.55;;;10.10;87.80;;;;;;5046246;28;20094;-81
2022/12/09 05:16:07;;;;;;;20.15;18.33;;;10.10;87.80;;;;;;5025603;28;20184;-80
2022/12/09 05:18:32;;;;;;;19.38;17.58;;;10.10;87.70;;;;;;5034492;28;20563;-81
2022/12/09 05:20:58;;;;;;;21.33;19.50;;;10.10;87.60;;;;;;5047165;28;20053;-77
2022/12/09 05:23:24;;;;;;;19.45;17.75;;;10.10;87.70;;;;;;5053752;28;20025;-79
2022/12/09 05:25:49;;;;;;;20.00;18.10;;;10.10;87.70;;;;;;5036635;28;20092;-80
2022/12/09 05:28:15;;;;;;;20.30;18.35;;;10.10;87.60;;;;;;5055027;28;20024;-81
2022/12/09 05:30:41;;;;;;;20.17;18.38;;;10.10;87.60;;;;;;5037101;28;20021;-81
2022/12/09 05:33:07;;;;;;;20.38;18.48;;;10.10;87.60;;;;;;5027376;28;20037;-80
2022/12/09 05:35:32;;;;;;;19.45;17.75;;;10.10;87.60;;;;;;5017957;28;20112;-81
2022/12/09 05:37:58;;;;;;;20.38;18.50;;;10.10;87.60;;;;;;5041812;28;20029;-79
2022/12/09 05:40:24;;;;;;;21.02;19.13;;;10.10;87.50;;;;;;5042656;28;20029;-80
2022/12/09 05:42:49;;;;;;;19.73;17.92;;;10.10;87.50;;;;;;5042935;28;20044;-81
2022/12/09 05:45:15;;;;;;;20.55;18.75;;;10.10;87.50;;;;;;5045654;28;20037;-78
2022/12/09 05:47:40;;;;;;;20.10;18.40;;;10.10;87.50;;;;;;5054442;28;20017;-78
2022/12/09 05:50:07;;;;;;;18.92;17.33;;;10.10;87.50;;;;;;5056756;28;20025;-80
2022/12/09 05:52:34;;;;;;;20.02;18.27;;;10.10;87.50;;;;;;5053322;28;20027;-80
2022/12/09 05:55:03;;;;;;;20.13;17.70;;;10.10;87.50;;;;;;5049095;28;20021;-77
2022/12/09 05:57:29;;;;;;;20.00;18.20;;;10.10;87.50;;;;;;5040503;28;20029;-78
2022/12/09 05:59:54;;;;;;;18.73;17.02;;;10.10;87.50;;;;;;5041622;28;20028;-80
2022/12/09 06:02:20;;;;;;;19.42;17.63;;;10.10;87.40;;;;;;5055896;28;20028;-80
2022/12/09 06:04:46;;;;;;;19.83;18.02;;;10.10;87.40;;;;;;5041004;28;20025;-79
2022/12/09 06:07:11;;;;;;;21.23;19.33;;;10.10;87.40;;;;;;5036674;28;20017;-80
2022/12/09 06:09:37;;;;;;;19.92;18.20;;;10.10;87.30;;;;;;5054298;28;20055;-78
2022/12/09 06:12:03;;;;;;;20.45;18.55;;;10.10;87.90;;;;;;5030821;28;20108;-78
2022/12/09 06:14:28;;;;;;;20.58;18.77;;;10.10;87.20;;;;;;5035563;28;20047;-79
2022/12/09 06:16:54;;;;;;;19.67;17.92;;;10.10;87.30;;;;;;5057404;28;20036;-79
2022/12/09 06:19:19;;;;;;;19.88;18.17;;;10.10;87.30;;;;;;5041100;28;20032;-79
2022/12/09 06:21:45;;;;;;;20.08;18.38;;;10.20;87.30;;;;;;5038455;28;20029;-79
2022/12/09 06:24:10;;;;;;;19.75;18.02;;;10.20;87.30;;;;;;5040683;28;20511;-80
2022/12/09 06:26:36;;;;;;;19.50;17.70;;;10.20;87.20;;;;;;5035418;28;20028;-78
2022/12/09 06:29:01;;;;;;;20.00;18.20;;;10.20;87.20;;;;;;5043409;28;20029;-79
2022/12/09 06:31:28;;;;;;;20.33;18.45;;;10.20;87.10;;;;;;5051472;28;20033;-79
2022/12/09 06:33:54;;;;;;;19.50;17.75;;;10.20;87.10;;;;;;5057037;28;20032;-79
2022/12/09 06:36:20;;;;;;;19.40;17.65;;;10.20;87.00;;;;;;5052451;28;20021;-79
2022/12/09 06:38:46;;;;;;;18.70;16.92;;;10.20;86.90;;;;;;5040310;28;20027;-80
2022/12/09 06:41:14;;;;;;;19.75;17.95;;;10.20;87.10;;;;;;5056273;28;20040;-78
2022/12/09 06:43:40;;;;;;;19.48;17.48;;;10.10;87.10;;;;;;5050448;28;20400;-80
2022/12/09 06:46:32;;;;;;;19.80;18.00;;;10.10;87.20;;;;;;5020302;28;20030;-81
2022/12/09 06:48:57;;;;;;;19.33;17.52;;;10.10;87.30;;;;;;5044001;28;20030;-79
2022/12/09 06:51:24;;;;;;;19.48;17.60;;;10.10;87.30;;;;;;5032503;28;20080;-79
2022/12/09 06:53:49;;;;;;;18.55;16.90;;;10.10;87.30;;;;;;5048123;28;20021;-79
2022/12/09 06:56:15;;;;;;;18.48;16.77;;;10.10;87.30;;;;;;5057324;28;20025;-79
2022/12/09 06:58:42;;;;;;;20.08;18.08;;;10.10;87.30;;;;;;5057185;28;20021;-80
2022/12/09 07:01:14;;;;;;;20.00;18.10;;;10.10;87.40;;;;;;5039395;28;20026;-80
2022/12/09 07:03:42;;;;;;;19.20;17.38;;;10.10;87.40;;;;;;5049382;28;20021;-80
2022/12/09 07:06:24;;;;;;;19.90;17.98;;;10.10;87.50;;;;;;5057689;28;20120;-79
2022/12/09 07:08:50;;;;;;;18.98;17.25;;;10.00;87.50;;;;;;5060374;28;20028;-79
2022/12/09 07:11:16;;;;;;;19.70;17.88;;;10.10;87.50;;;;;;5039063;28;20013;-81
2022/12/09 07:13:41;;;;;;;20.08;18.27;;;10.00;87.50;;;;;;5055499;28;20021;-81
2022/12/09 07:16:07;;;;;;;19.60;17.67;;;10.10;87.60;;;;;;5029615;28;20029;-81
2022/12/09 07:18:32;;;;;;;19.52;17.83;;;10.10;87.50;;;;;;5039262;28;20044;-81
2022/12/09 07:21:04;;;;;;;20.02;18.23;;;10.00;87.40;;;;;;5039872;28;20033;-80
2022/12/09 07:23:30;;;;;;;;;;;10.00;87.40;;;;;;5054464;28;20024;-81
2022/12/09 07:25:56;;;;;;;19.27;17.50;;;10.00;87.40;;;;;;5057261;28;19909;-81
2022/12/09 07:28:21;;;;;;;20.25;18.35;;;10.00;87.40;;;;;;5040443;28;20032;-80
2022/12/09 07:30:47;;;;;;;19.48;17.77;;;10.00;87.50;;;;;;5048487;28;20025;-79
2022/12/09 07:33:12;;;;;;;19.52;17.73;;;10.00;87.50;;;;;;5031872;28;20025;-81
2022/12/09 07:35:38;;;;;;;19.30;17.60;;;10.00;87.40;;;;;;5043515;28;20022;-81
2022/12/09 07:38:03;;;;;;;19.00;17.30;;;9.90;87.40;;;;;;5019011;28;20397;-80
2022/12/09 07:40:29;;;;;;;19.88;18.08;;;10.00;87.50;;;;;;5032788;28;20029;-80
2022/12/09 07:42:54;;;;;;;20.27;18.42;;;10.00;87.50;;;;;;5042533;28;20039;-80
2022/12/09 07:45:20;;;;;;;18.98;17.27;;;10.00;87.50;;;;;;5033625;28;20492;-79
2022/12/09 07:47:45;;;;;;;19.15;17.45;;;10.00;87.50;;;;;;5036716;28;20025;-81
2022/12/09 07:50:11;;;;;;;19.45;17.65;;;10.00;87.50;;;;;;5055331;28;20028;-79
2022/12/09 07:52:36;;;;;;;19.55;17.85;;;10.00;87.60;;;;;;5044904;28;20087;-79
2022/12/09 07:55:02;;;;;;;19.60;17.80;;;10.00;87.50;;;;;;5041077;28;20392;-80
2022/12/09 07:57:28;;;;;;;19.38;17.65;;;10.00;87.50;;;;;;5055041;28;20402;-80
2022/12/09 07:59:55;;;;;;;19.75;17.95;;;10.00;87.50;;;;;;5038358;28;20168;-80
2022/12/09 08:02:21;;;;;;;18.88;17.17;;;10.00;87.50;;;;;;5046567;28;20817;-80
2022/12/09 08:04:46;;;;;;;19.48;17.77;;;10.00;87.50;;;;;;5035310;28;20033;-81
2022/12/09 08:07:12;;;;;;;19.95;18.15;;;10.00;87.50;;;;;;5045233;28;20026;-80
2022/12/09 08:09:37;;;;;;;18.95;17.25;;;10.10;87.50;;;;;;5035500;28;20037;-79
2022/12/09 08:12:03;;;;;;;19.38;17.58;;;10.00;87.50;;;;;;5029747;28;20025;-80
2022/12/09 08:14:29;;;;;;;19.92;18.15;;;10.00;87.50;;;;;;5038814;28;20033;-81
2022/12/09 08:16:54;;;;;;;19.80;18.00;;;10.10;87.50;;;;;;5043190;28;20040;-80
2022/12/09 08:19:20;;;;;;;19.05;17.33;;;10.00;87.40;;;;;;5036896;28;20029;-80
2022/12/09 08:21:45;;;;;;;19.95;18.15;;;10.00;87.30;;;;;;5034814;28;20017;-81
2022/12/09 08:24:11;;;;;;;19.52;17.73;;;10.00;87.30;;;;;;5033889;28;20022;-77
2022/12/09 08:26:38;;;;;;;18.77;17.17;;;10.00;87.30;;;;;;5047965;28;20039;-80
2022/12/09 08:29:11;;;;;;;19.10;17.40;;;10.10;87.50;;;;;;5032960;28;20021;-80
2022/12/09 08:31:39;;;;;;;19.58;17.77;;;10.10;87.10;;;;;;5032051;28;20439;-80
2022/12/09 08:34:05;;;;;;;19.52;17.73;;;10.10;86.90;;;;;;5033226;28;20369;-80
2022/12/09 08:36:30;;;;;;;19.58;17.88;;;10.20;86.90;;;;;;5032680;28;20024;-80
2022/12/09 08:39:00;;;;;;;19.23;17.52;;;10.20;86.70;;;;;;5035329;28;20024;-82
2022/12/09 08:41:34;;;;;;;19.20;17.52;;;10.20;86.80;;;;;;5033296;28;20028;-81
2022/12/09 08:44:04;;;;;;;19.33;17.60;;;10.30;86.70;;;;;;5035318;28;20053;-81
2022/12/09 08:46:30;;;;;;;19.17;17.58;;;10.30;86.50;;;;;;5055539;28;20075;-82
2022/12/09 08:48:56;;;;;;;19.65;17.92;;;10.30;86.30;;;;;;5037768;28;20017;-81
2022/12/09 08:51:21;;;;;;;19.58;17.92;;;10.40;86.20;;;;;;5027605;28;20536;-81
2022/12/09 08:53:47;;;;;;;19.17;17.40;;;10.40;86.00;;;;;;5035731;28;20025;-82
2022/12/09 08:56:14;;;;;;;19.63;17.88;;;10.50;86.00;;;;;;5036458;28;20104;-81
2022/12/09 08:58:40;;;;;;;17.95;16.40;;;10.50;86.00;;;;;;5035220;28;20029;-79
2022/12/09 09:01:07;;;;;;;18.52;16.92;;;10.50;85.80;;;;;;5043202;28;20028;-79
2022/12/09 09:03:33;;;;;;;18.42;16.75;;;10.50;85.60;;;;;;5036399;28;20067;-79
2022/12/09 09:06:03;;;;;;;19.60;17.90;;;10.60;85.60;;;;;;5034699;28;20033;-80
2022/12/09 09:08:30;;;;;;;17.98;16.42;;;10.60;86.00;;;;;;5036269;28;20036;-81
2022/12/09 09:10:55;;;;;;;18.92;17.30;;;10.60;85.30;;;;;;5036103;28;20036;-80
2022/12/09 09:13:21;;;;;;;18.88;17.27;;;10.60;85.60;;;;;;5032597;28;20026;-81
2022/12/09 09:15:46;;;;;;;18.58;16.98;;;10.70;85.70;;;;;;5041448;28;20022;-81
2022/12/09 09:18:13;;;;;;;18.27;16.73;;;10.70;85.70;;;;;;5051355;28;20112;-82
2022/12/09 09:20:51;;;;;;;18.17;16.58;;;10.70;85.70;;;;;;5035341;28;20034;-80
2022/12/09 09:23:16;;;;;;;18.83;17.23;;;10.70;85.70;;;;;;5036586;28;20036;-80
2022/12/09 09:25:43;;;;;;;18.67;17.08;;;10.70;85.70;;;;;;5034719;28;20030;-80
2022/12/09 09:28:09;;;;;;;19.73;18.02;;;10.70;85.70;;;;;;5054953;28;20097;-81
2022/12/09 09:30:36;;;;;;;19.75;18.05;;;10.80;85.60;;;;;;5035779;28;20029;-79
2022/12/09 09:33:02;;;;;;;18.23;16.55;;;10.80;85.50;;;;;;5024346;28;20106;-80
2022/12/09 09:35:27;;;;;;;18.15;16.65;;;10.80;85.40;;;;;;5037333;28;20021;-80
2022/12/09 09:37:53;;;;;;;18.30;16.73;;;10.80;85.40;;;;;;5055181;28;20640;-80
2022/12/09 09:40:20;;;;;;;17.42;15.90;;;10.90;85.10;;;;;;5032682;28;20025;-80
2022/12/09 09:42:49;;;;;;;17.52;16.02;;;10.90;84.70;;;;;;5033183;28;20540;-81
2022/12/09 09:45:20;;;;;;;17.50;15.98;;;10.90;84.40;;;;;;5047175;28;20026;-81
2022/12/09 09:48:01;;;;;;;17.42;15.80;;;10.90;84.40;;;;;;5056800;28;20029;-81
2022/12/09 09:50:42;;;;;;;17.70;16.20;;;10.90;84.60;;;;;;5060062;28;20111;-81
2022/12/09 09:53:35;;;;;;;17.70;16.10;;;10.80;84.90;;;;;;5041822;28;20025;-79
2022/12/09 09:56:30;;;;;;;17.20;15.73;;;10.80;85.20;;;;;;5054786;28;20039;-81
2022/12/09 09:59:15;;;;;;;17.35;15.82;;;10.70;85.30;;;;;;5059470;28;20029;-82
2022/12/09 10:01:44;;;;;;;17.85;16.30;;;10.60;85.30;;;;;;5051365;28;20454;-80
2022/12/09 10:04:19;;;;;;;17.60;16.02;;;10.60;85.50;;;;;;5038958;28;20025;-80
2022/12/09 10:07:01;;;;;;;17.88;16.35;;;10.60;85.80;;;;;;5047612;28;20108;-80
2022/12/09 10:09:45;;;;;;;17.85;16.25;;;10.60;85.80;;;;;;5041511;28;20049;-80
2022/12/09 10:12:25;;;;;;;17.77;16.17;;;10.50;85.90;;;;;;5036582;28;20108;-80
2022/12/09 10:14:59;;;;;;;17.95;16.40;;;10.50;86.00;;;;;;5038957;28;20048;-80
2022/12/09 10:17:34;;;;;;;17.90;16.40;;;10.50;86.00;;;;;;5033884;28;20030;-80
2022/12/09 10:20:10;;;;;;;18.40;16.65;;;10.50;86.00;;;;;;5036899;28;20029;-82
2022/12/09 10:22:47;;;;;;;18.95;17.30;;;10.40;86.00;;;;;;5036701;28;20018;-82
2022/12/09 10:25:23;;;;;;;19.00;17.23;;;10.40;86.00;;;;;;5044759;28;20487;-81
2022/12/09 10:27:51;;;;;;;18.60;17.00;;;10.40;86.10;;;;;;5019536;28;20022;-79
2022/12/09 10:30:18;;;;;;;18.90;17.30;;;10.40;86.10;;;;;;5019016;28;20548;-79
2022/12/09 10:32:44;;;;;;;17.77;16.27;;;10.40;86.10;;;;;;5044564;28;20044;-80
2022/12/09 10:35:21;;;;;;;18.67;17.08;;;10.40;86.20;;;;;;5019899;28;20021;-81
2022/12/09 10:37:48;;;;;;;18.08;16.48;;;10.40;86.20;;;;;;5052868;28;20036;-81
2022/12/09 10:40:25;;;;;;;17.50;16.00;;;10.40;86.30;;;;;;5037078;28;20025;-81
2022/12/09 10:45:46;;;;;;;18.15;16.55;;;10.30;86.40;;;;;;5055380;28;20079;-83
2022/12/09 10:48:28;;;;;;;18.30;16.70;;;10.30;86.40;;;;;;5020134;28;20393;-82
2022/12/09 10:50:56;;;;;;;17.98;16.38;;;10.30;86.40;;;;;;5019231;28;20465;-82
2022/12/09 10:53:23;;;;;;;18.77;17.15;;;10.30;86.30;;;;;;5039427;28;20025;-82
2022/12/09 10:55:51;;;;;;;19.08;17.48;;;10.30;86.30;;;;;;5055483;28;20086;-82
2022/12/09 10:58:19;;;;;;;18.88;17.27;;;10.30;86.30;;;;;;5036611;28;20507;-83
2022/12/09 11:01:02;;;;;;;17.98;16.38;;;10.30;86.30;;;;;;5030418;28;20087;-82
2022/12/09 11:03:31;;;;;;;17.63;16.17;;;10.30;86.40;;;;;;5035982;28;20440;-82
2022/12/09 11:06:03;;;;;;;18.05;16.55;;;10.30;86.50;;;;;;5017892;28;20033;-80
2022/12/09 11:08:29;;;;;;;18.30;16.70;;;10.30;86.40;;;;;;5036602;28;20481;-81
2022/12/09 11:10:55;;;;;;;18.20;16.60;;;10.30;86.40;;;;;;5033219;28;20120;-81
2022/12/09 11:13:27;;;;;;;18.00;16.40;;;10.30;86.50;;;;;;5026708;28;20017;-81
2022/12/09 11:15:57;;;;;;;17.48;16.00;;;10.30;86.40;;;;;;5035198;28;20044;-82
2022/12/09 11:18:30;;;;;;;18.00;16.40;;;10.30;86.40;;;;;;5035527;28;20032;-78
2022/12/09 11:21:05;;;;;;;17.70;16.20;;;10.30;86.40;;;;;;5051261;28;20024;-81
2022/12/09 11:23:32;;;;;;;18.60;17.00;;;10.30;86.40;;;;;;5037385;28;20025;-81
2022/12/09 11:25:59;;;;;;;17.27;15.77;;;10.30;86.90;;;;;;5037923;28;20408;-80
2022/12/09 11:28:33;;;;;;;18.27;16.65;;;10.30;86.40;;;;;;5021787;28;20021;-78
2022/12/09 11:31:11;;;;;;;18.20;16.70;;;10.30;86.30;;;;;;5049283;28;20025;-78
2022/12/09 11:33:46;;;;;;;18.95;17.35;;;10.30;86.20;;;;;;5034495;28;20393;-79
2022/12/09 11:36:40;;;;;;;18.10;16.50;;;10.30;86.20;;;;;;5035032;28;20025;-78
2022/12/09 11:39:29;;;;;;;16.98;15.52;;;10.40;86.00;;;;;;5049027;28;20029;-80
2022/12/09 11:42:16;;;;;;;16.25;14.85;;;10.40;85.60;;;;;;5038657;28;20055;-79
2022/12/09 11:44:49;;;;;;;17.58;15.98;;;10.50;85.60;;;;;;5052047;28;20556;-79
2022/12/09 11:47:43;;;;;;;17.33;15.82;;;10.50;85.60;;;;;;5055959;28;20036;-78
2022/12/09 11:50:23;;;;;;;17.65;16.05;;;10.40;85.80;;;;;;5054358;28;20488;-79
2022/12/09 11:53:26;;;;;;;17.52;15.93;;;10.40;85.70;;;;;;5033379;28;20052;-79
2022/12/09 11:55:54;;;;;;;17.40;15.82;;;10.40;85.90;;;;;;4993686;28;20469;-79
2022/12/09 11:58:48;;;;;;;17.48;15.98;;;10.40;86.00;;;;;;5030381;28;20041;-78
2022/12/09 12:01:38;;;;;;;17.77;16.17;;;10.30;86.00;;;;;;4998768;28;20048;-77
2022/12/09 12:04:10;;;;;;;18.77;17.10;;;10.30;86.10;;;;;;5039593;28;20030;-78
2022/12/09 12:06:43;;;;;;;;;;;10.30;86.10;;;;;;5058300;28;20029;-80
2022/12/09 12:09:17;;;;;;;16.20;14.80;;;10.30;86.10;;;;;;5042879;28;19909;-80
2022/12/09 12:11:56;;;;;;;16.88;15.40;;;10.40;86.20;;;;;;5060054;28;20069;-79
2022/12/09 12:14:27;;;;;;;16.45;15.02;;;10.30;86.20;;;;;;5040947;28;20056;-80
2022/12/09 12:17:13;;;;;;;18.13;16.63;;;10.30;86.20;;;;;;5053157;28;20029;-81
2022/12/09 12:19:41;;;;;;;17.63;16.13;;;10.30;86.70;;;;;;5055636;28;20017;-80
2022/12/09 12:22:34;;;;;;;17.65;16.15;;;10.40;86.20;;;;;;5032945;28;20025;-81
2022/12/09 12:25:20;;;;;;;18.10;16.52;;;10.40;86.20;;;;;;5044512;28;20075;-80
2022/12/09 12:28:04;;;;;;;44.38;18.10;;;10.40;86.10;;;;;;5040528;28;20040;-80
2022/12/09 12:31:00;;;;;;;18.25;16.65;;;10.40;86.00;;;;;;5056882;28;20082;-79
2022/12/09 12:33:35;;;;;;;18.10;16.60;;;10.40;85.90;;;;;;5034154;28;20037;-78
2022/12/09 12:36:15;;;;;;;18.35;16.75;;;10.40;85.90;;;;;;5047986;28;20040;-80
2022/12/09 12:38:59;;;;;;;18.33;16.73;;;10.50;85.90;;;;;;5038706;28;20499;-79
2022/12/09 12:42:21;;;;;;;19.02;17.33;;;10.50;85.70;;;;;;5034195;28;20037;-81
2022/12/09 12:48:14;;;;;;;17.38;15.88;;;10.60;85.10;;;;;;4991772;28;20037;-80